sensor_id;sensor_type;location;lat;lon;timestamp;P1;durP1;ratioP1;P2;durP2;ratioP2
57309;SDS011;43153;50.984;18.204;2023-04-03T00:00:09;5.90;;;1.30;;
57309;SDS011;43153;50.984;18.204;2023-04-03T00:02:37;7.10;;;1.60;;
57309;SDS011;43153;50.984;18.204;2023-04-03T00:05:06;8.30;;;1.50;;
57309;SDS011;43153;50.984;18.204;2023-04-03T00:07:32;7.20;;;1.20;;
57309;SDS011;43153;50.984;18.204;2023-04-03T00:09:59;7.50;;;1.30;;
57309;SDS011;43153;50.984;18.204;2023-04-03T00:12:30;8.10;;;1.40;;
57309;SDS011;43153;50.984;18.204;2023-04-03T00:14:56;7.70;;;1.70;;
57309;SDS011;43153;50.984;18.204;2023-04-03T00:17:24;8.80;;;1.50;;
57309;SDS011;43153;50.984;18.204;2023-04-03T00:19:52;4.40;;;1.30;;
57309;SDS011;43153;50.984;18.204;2023-04-03T00:22:28;6.60;;;1.60;;
57309;SDS011;43153;50.984;18.204;2023-04-03T00:24:54;9.70;;;1.40;;
57309;SDS011;43153;50.984;18.204;2023-04-03T00:27:23;7.10;;;1.10;;
57309;SDS011;43153;50.984;18.204;2023-04-03T00:29:56;6.00;;;1.30;;
57309;SDS011;43153;50.984;18.204;2023-04-03T00:32:23;7.40;;;1.30;;
57309;SDS011;43153;50.984;18.204;2023-04-03T00:34:55;7.90;;;1.40;;
57309;SDS011;43153;50.984;18.204;2023-04-03T00:37:21;6.40;;;1.00;;
57309;SDS011;43153;50.984;18.204;2023-04-03T00:39:53;9.50;;;1.40;;
57309;SDS011;43153;50.984;18.204;2023-04-03T00:42:24;8.80;;;1.60;;
57309;SDS011;43153;50.984;18.204;2023-04-03T00:47:23;8.70;;;1.40;;
57309;SDS011;43153;50.984;18.204;2023-04-03T00:50:03;7.00;;;2.00;;
57309;SDS011;43153;50.984;18.204;2023-04-03T00:52:33;7.20;;;1.60;;
57309;SDS011;43153;50.984;18.204;2023-04-03T00:55:06;5.70;;;1.40;;
57309;SDS011;43153;50.984;18.204;2023-04-03T00:57:34;8.30;;;1.60;;
57309;SDS011;43153;50.984;18.204;2023-04-03T01:00:08;11.00;;;1.60;;
57309;SDS011;43153;50.984;18.204;2023-04-03T01:02:44;9.70;;;1.90;;
57309;SDS011;43153;50.984;18.204;2023-04-03T01:05:15;6.70;;;1.60;;
57309;SDS011;43153;50.984;18.204;2023-04-03T01:07:45;8.70;;;2.60;;
57309;SDS011;43153;50.984;18.204;2023-04-03T01:10:15;5.20;;;1.30;;
57309;SDS011;43153;50.984;18.204;2023-04-03T01:12:43;15.90;;;2.00;;
57309;SDS011;43153;50.984;18.204;2023-04-03T01:15:24;10.40;;;1.50;;
57309;SDS011;43153;50.984;18.204;2023-04-03T01:18:04;9.70;;;1.60;;
57309;SDS011;43153;50.984;18.204;2023-04-03T01:20:49;15.10;;;3.40;;
57309;SDS011;43153;50.984;18.204;2023-04-03T01:25:59;11.70;;;1.80;;
57309;SDS011;43153;50.984;18.204;2023-04-03T01:28:37;8.70;;;1.10;;
57309;SDS011;43153;50.984;18.204;2023-04-03T01:33:57;9.90;;;1.80;;
57309;SDS011;43153;50.984;18.204;2023-04-03T01:36:27;6.50;;;1.60;;
57309;SDS011;43153;50.984;18.204;2023-04-03T01:39:00;11.90;;;2.00;;
57309;SDS011;43153;50.984;18.204;2023-04-03T01:41:28;7.40;;;1.90;;
57309;SDS011;43153;50.984;18.204;2023-04-03T01:43:55;12.40;;;2.00;;
57309;SDS011;43153;50.984;18.204;2023-04-03T01:46:29;9.30;;;2.00;;
57309;SDS011;43153;50.984;18.204;2023-04-03T01:48:55;8.20;;;2.00;;
57309;SDS011;43153;50.984;18.204;2023-04-03T01:51:22;8.70;;;1.90;;
57309;SDS011;43153;50.984;18.204;2023-04-03T01:53:53;10.10;;;2.70;;
57309;SDS011;43153;50.984;18.204;2023-04-03T01:56:20;9.40;;;2.00;;
57309;SDS011;43153;50.984;18.204;2023-04-03T01:58:50;16.40;;;3.40;;
57309;SDS011;43153;50.984;18.204;2023-04-03T02:01:17;12.70;;;2.10;;
57309;SDS011;43153;50.984;18.204;2023-04-03T02:03:46;11.40;;;2.60;;
57309;SDS011;43153;50.984;18.204;2023-04-03T02:06:19;9.70;;;2.10;;
57309;SDS011;43153;50.984;18.204;2023-04-03T02:08:46;9.40;;;2.30;;
57309;SDS011;43153;50.984;18.204;2023-04-03T02:11:15;13.10;;;2.60;;
57309;SDS011;43153;50.984;18.204;2023-04-03T02:13:46;15.90;;;2.60;;
57309;SDS011;43153;50.984;18.204;2023-04-03T02:16:12;11.80;;;3.00;;
57309;SDS011;43153;50.984;18.204;2023-04-03T02:18:44;9.90;;;2.90;;
57309;SDS011;43153;50.984;18.204;2023-04-03T02:21:12;12.10;;;2.20;;
57309;SDS011;43153;50.984;18.204;2023-04-03T03:02:49;12.70;;;5.00;;
57309;SDS011;43153;50.984;18.204;2023-04-03T03:07:51;12.30;;;4.80;;
57309;SDS011;43153;50.984;18.204;2023-04-03T03:10:18;15.20;;;4.90;;
57309;SDS011;43153;50.984;18.204;2023-04-03T03:12:46;12.20;;;3.90;;
57309;SDS011;43153;50.984;18.204;2023-04-03T03:15:14;10.00;;;3.90;;
57309;SDS011;43153;50.984;18.204;2023-04-03T03:20:22;9.90;;;2.90;;
57309;SDS011;43153;50.984;18.204;2023-04-03T03:22:59;11.70;;;3.30;;
57309;SDS011;43153;50.984;18.204;2023-04-03T03:25:27;6.80;;;2.90;;
57309;SDS011;43153;50.984;18.204;2023-04-03T03:27:55;10.70;;;3.10;;
57309;SDS011;43153;50.984;18.204;2023-04-03T03:30:26;11.90;;;3.50;;
57309;SDS011;43153;50.984;18.204;2023-04-03T03:32:54;13.60;;;4.00;;
57309;SDS011;43153;50.984;18.204;2023-04-03T03:35:20;9.40;;;3.10;;
57309;SDS011;43153;50.984;18.204;2023-04-03T03:37:51;10.00;;;3.00;;
57309;SDS011;43153;50.984;18.204;2023-04-03T03:40:19;16.40;;;4.00;;
57309;SDS011;43153;50.984;18.204;2023-04-03T03:42:45;12.70;;;2.80;;
57309;SDS011;43153;50.984;18.204;2023-04-03T03:45:12;12.60;;;3.60;;
57309;SDS011;43153;50.984;18.204;2023-04-03T03:47:51;18.00;;;4.50;;
57309;SDS011;43153;50.984;18.204;2023-04-03T03:50:22;16.90;;;3.50;;
57309;SDS011;43153;50.984;18.204;2023-04-03T03:52:47;11.60;;;3.00;;
57309;SDS011;43153;50.984;18.204;2023-04-03T03:55:15;25.60;;;3.90;;
57309;SDS011;43153;50.984;18.204;2023-04-03T03:57:46;16.10;;;3.00;;
57309;SDS011;43153;50.984;18.204;2023-04-03T04:00:13;19.50;;;4.10;;
57309;SDS011;43153;50.984;18.204;2023-04-03T04:02:43;16.80;;;3.80;;
57309;SDS011;43153;50.984;18.204;2023-04-03T04:05:13;12.90;;;3.70;;
57309;SDS011;43153;50.984;18.204;2023-04-03T04:07:47;9.30;;;3.40;;
57309;SDS011;43153;50.984;18.204;2023-04-03T04:10:13;14.80;;;3.60;;
57309;SDS011;43153;50.984;18.204;2023-04-03T04:12:45;11.00;;;3.30;;
57309;SDS011;43153;50.984;18.204;2023-04-03T04:15:13;15.70;;;3.90;;
57309;SDS011;43153;50.984;18.204;2023-04-03T04:17:50;10.50;;;3.30;;
57309;SDS011;43153;50.984;18.204;2023-04-03T04:20:18;15.50;;;4.70;;
57309;SDS011;43153;50.984;18.204;2023-04-03T04:22:52;22.60;;;4.30;;
57309;SDS011;43153;50.984;18.204;2023-04-03T04:25:18;19.30;;;4.00;;
57309;SDS011;43153;50.984;18.204;2023-04-03T04:27:47;15.70;;;3.80;;
57309;SDS011;43153;50.984;18.204;2023-04-03T04:30:15;9.70;;;3.50;;
57309;SDS011;43153;50.984;18.204;2023-04-03T04:32:42;14.70;;;4.50;;
57309;SDS011;43153;50.984;18.204;2023-04-03T04:35:08;15.60;;;2.90;;
57309;SDS011;43153;50.984;18.204;2023-04-03T04:37:39;11.40;;;3.60;;
57309;SDS011;43153;50.984;18.204;2023-04-03T04:40:05;10.40;;;3.50;;
57309;SDS011;43153;50.984;18.204;2023-04-03T04:42:32;14.00;;;4.70;;
57309;SDS011;43153;50.984;18.204;2023-04-03T04:44:58;10.80;;;3.50;;
57309;SDS011;43153;50.984;18.204;2023-04-03T04:47:28;11.30;;;2.70;;
57309;SDS011;43153;50.984;18.204;2023-04-03T04:49:55;12.10;;;2.90;;
57309;SDS011;43153;50.984;18.204;2023-04-03T04:52:21;11.40;;;3.40;;
57309;SDS011;43153;50.984;18.204;2023-04-03T04:54:47;18.20;;;5.60;;
57309;SDS011;43153;50.984;18.204;2023-04-03T04:57:13;12.10;;;3.80;;
57309;SDS011;43153;50.984;18.204;2023-04-03T04:59:41;9.50;;;2.70;;
57309;SDS011;43153;50.984;18.204;2023-04-03T05:02:07;14.20;;;3.50;;
57309;SDS011;43153;50.984;18.204;2023-04-03T05:04:36;11.70;;;3.30;;
57309;SDS011;43153;50.984;18.204;2023-04-03T05:07:04;11.30;;;3.00;;
57309;SDS011;43153;50.984;18.204;2023-04-03T05:09:31;13.40;;;3.50;;
57309;SDS011;43153;50.984;18.204;2023-04-03T05:12:05;12.90;;;3.70;;
57309;SDS011;43153;50.984;18.204;2023-04-03T05:14:33;17.50;;;3.20;;
57309;SDS011;43153;50.984;18.204;2023-04-03T05:16:59;12.70;;;3.10;;
57309;SDS011;43153;50.984;18.204;2023-04-03T05:19:25;9.40;;;3.20;;
57309;SDS011;43153;50.984;18.204;2023-04-03T05:21:51;11.80;;;3.50;;
57309;SDS011;43153;50.984;18.204;2023-04-03T05:24:18;9.60;;;3.50;;
57309;SDS011;43153;50.984;18.204;2023-04-03T05:26:59;13.30;;;3.50;;
57309;SDS011;43153;50.984;18.204;2023-04-03T05:29:30;12.40;;;3.50;;
57309;SDS011;43153;50.984;18.204;2023-04-03T05:32:08;11.10;;;3.10;;
57309;SDS011;43153;50.984;18.204;2023-04-03T05:34:37;7.50;;;2.70;;
57309;SDS011;43153;50.984;18.204;2023-04-03T05:37:06;10.70;;;3.20;;
57309;SDS011;43153;50.984;18.204;2023-04-03T05:40:11;12.10;;;3.10;;
57309;SDS011;43153;50.984;18.204;2023-04-03T05:42:46;16.90;;;3.60;;
57309;SDS011;43153;50.984;18.204;2023-04-03T05:45:14;11.90;;;3.50;;
57309;SDS011;43153;50.984;18.204;2023-04-03T05:47:41;15.50;;;3.50;;
57309;SDS011;43153;50.984;18.204;2023-04-03T05:50:15;14.80;;;3.50;;
57309;SDS011;43153;50.984;18.204;2023-04-03T05:52:44;11.20;;;2.70;;
57309;SDS011;43153;50.984;18.204;2023-04-03T05:55:13;11.80;;;2.80;;
57309;SDS011;43153;50.984;18.204;2023-04-03T05:57:39;14.10;;;3.60;;
57309;SDS011;43153;50.984;18.204;2023-04-03T06:00:06;14.30;;;3.90;;
57309;SDS011;43153;50.984;18.204;2023-04-03T06:02:53;11.20;;;3.50;;
57309;SDS011;43153;50.984;18.204;2023-04-03T06:05:53;10.50;;;3.20;;
57309;SDS011;43153;50.984;18.204;2023-04-03T06:08:20;14.90;;;3.20;;
57309;SDS011;43153;50.984;18.204;2023-04-03T06:11:56;13.80;;;4.30;;
57309;SDS011;43153;50.984;18.204;2023-04-03T06:14:51;10.10;;;2.70;;
57309;SDS011;43153;50.984;18.204;2023-04-03T06:17:50;9.70;;;2.80;;
57309;SDS011;43153;50.984;18.204;2023-04-03T06:20:17;8.30;;;2.50;;
57309;SDS011;43153;50.984;18.204;2023-04-03T06:23:56;9.70;;;2.60;;
57309;SDS011;43153;50.984;18.204;2023-04-03T06:26:26;9.70;;;2.40;;
57309;SDS011;43153;50.984;18.204;2023-04-03T06:28:54;12.60;;;2.20;;
57309;SDS011;43153;50.984;18.204;2023-04-03T06:32:01;7.60;;;2.20;;
57309;SDS011;43153;50.984;18.204;2023-04-03T06:34:30;8.80;;;2.10;;
57309;SDS011;43153;50.984;18.204;2023-04-03T06:37:18;10.80;;;2.70;;
57309;SDS011;43153;50.984;18.204;2023-04-03T06:39:56;9.70;;;2.90;;
57309;SDS011;43153;50.984;18.204;2023-04-03T06:42:43;8.90;;;2.00;;
57309;SDS011;43153;50.984;18.204;2023-04-03T06:45:11;6.10;;;1.70;;
57309;SDS011;43153;50.984;18.204;2023-04-03T06:47:49;5.70;;;2.30;;
57309;SDS011;43153;50.984;18.204;2023-04-03T06:50:23;6.80;;;2.00;;
57309;SDS011;43153;50.984;18.204;2023-04-03T06:54:10;10.20;;;1.80;;
57309;SDS011;43153;50.984;18.204;2023-04-03T06:57:20;7.40;;;2.00;;
57309;SDS011;43153;50.984;18.204;2023-04-03T06:59:52;8.60;;;1.90;;
57309;SDS011;43153;50.984;18.204;2023-04-03T07:02:20;5.90;;;1.80;;
57309;SDS011;43153;50.984;18.204;2023-04-03T07:04:50;12.70;;;2.10;;
57309;SDS011;43153;50.984;18.204;2023-04-03T07:07:21;11.50;;;2.40;;
57309;SDS011;43153;50.984;18.204;2023-04-03T07:09:50;10.80;;;1.80;;
57309;SDS011;43153;50.984;18.204;2023-04-03T07:12:21;7.70;;;1.70;;
57309;SDS011;43153;50.984;18.204;2023-04-03T07:14:49;7.10;;;2.00;;
57309;SDS011;43153;50.984;18.204;2023-04-03T07:17:35;10.50;;;2.50;;
57309;SDS011;43153;50.984;18.204;2023-04-03T07:20:06;6.90;;;1.80;;
57309;SDS011;43153;50.984;18.204;2023-04-03T07:22:36;9.10;;;2.00;;
57309;SDS011;43153;50.984;18.204;2023-04-03T07:25:23;6.90;;;1.90;;
57309;SDS011;43153;50.984;18.204;2023-04-03T07:27:54;8.10;;;1.80;;
57309;SDS011;43153;50.984;18.204;2023-04-03T07:30:21;10.80;;;2.40;;
57309;SDS011;43153;50.984;18.204;2023-04-03T07:32:50;8.70;;;2.20;;
57309;SDS011;43153;50.984;18.204;2023-04-03T07:37:50;9.40;;;2.30;;
57309;SDS011;43153;50.984;18.204;2023-04-03T07:42:57;6.90;;;1.60;;
57309;SDS011;43153;50.984;18.204;2023-04-03T07:45:26;7.40;;;1.80;;
57309;SDS011;43153;50.984;18.204;2023-04-03T07:48:21;9.30;;;2.00;;
57309;SDS011;43153;50.984;18.204;2023-04-03T07:50:48;7.50;;;1.80;;
57309;SDS011;43153;50.984;18.204;2023-04-03T07:53:15;6.40;;;1.80;;
57309;SDS011;43153;50.984;18.204;2023-04-03T07:55:41;7.70;;;2.00;;
57309;SDS011;43153;50.984;18.204;2023-04-03T07:58:17;5.70;;;1.50;;
57309;SDS011;43153;50.984;18.204;2023-04-03T08:00:46;5.90;;;1.40;;
57309;SDS011;43153;50.984;18.204;2023-04-03T08:03:16;6.50;;;1.40;;
57309;SDS011;43153;50.984;18.204;2023-04-03T08:05:49;5.00;;;1.30;;
57309;SDS011;43153;50.984;18.204;2023-04-03T08:08:29;6.30;;;1.70;;
57309;SDS011;43153;50.984;18.204;2023-04-03T08:11:27;7.50;;;1.30;;
57309;SDS011;43153;50.984;18.204;2023-04-03T08:14:15;7.00;;;2.00;;
57309;SDS011;43153;50.984;18.204;2023-04-03T08:16:49;5.50;;;1.20;;
57309;SDS011;43153;50.984;18.204;2023-04-03T08:19:20;2.90;;;0.90;;
57309;SDS011;43153;50.984;18.204;2023-04-03T08:21:49;8.90;;;1.30;;
57309;SDS011;43153;50.984;18.204;2023-04-03T08:24:25;4.60;;;1.30;;
57309;SDS011;43153;50.984;18.204;2023-04-03T08:26:57;7.90;;;1.20;;
57309;SDS011;43153;50.984;18.204;2023-04-03T08:29:26;5.80;;;0.90;;
57309;SDS011;43153;50.984;18.204;2023-04-03T08:32:05;6.20;;;1.10;;
57309;SDS011;43153;50.984;18.204;2023-04-03T08:34:34;5.50;;;1.00;;
57309;SDS011;43153;50.984;18.204;2023-04-03T08:37:04;4.80;;;1.00;;
57309;SDS011;43153;50.984;18.204;2023-04-03T08:39:31;4.10;;;0.70;;
57309;SDS011;43153;50.984;18.204;2023-04-03T08:42:15;7.40;;;1.00;;
57309;SDS011;43153;50.984;18.204;2023-04-03T08:47:46;5.50;;;1.10;;
57309;SDS011;43153;50.984;18.204;2023-04-03T08:50:20;2.20;;;0.70;;
57309;SDS011;43153;50.984;18.204;2023-04-03T09:32:53;3.50;;;1.10;;
57309;SDS011;43153;50.984;18.204;2023-04-03T09:35:30;3.50;;;0.80;;
57309;SDS011;43153;50.984;18.204;2023-04-03T09:38:14;7.40;;;1.10;;
57309;SDS011;43153;50.984;18.204;2023-04-03T09:41:21;5.30;;;1.00;;
57309;SDS011;43153;50.984;18.204;2023-04-03T09:43:57;5.60;;;0.80;;
57309;SDS011;43153;50.984;18.204;2023-04-03T09:46:35;5.40;;;1.00;;
57309;SDS011;43153;50.984;18.204;2023-04-03T09:49:03;5.40;;;1.20;;
57309;SDS011;43153;50.984;18.204;2023-04-03T09:51:31;3.80;;;0.70;;
57309;SDS011;43153;50.984;18.204;2023-04-03T09:53:58;7.00;;;1.60;;
57309;SDS011;43153;50.984;18.204;2023-04-03T09:56:29;5.50;;;1.10;;
57309;SDS011;43153;50.984;18.204;2023-04-03T10:01:32;6.50;;;1.20;;
57309;SDS011;43153;50.984;18.204;2023-04-03T10:04:14;5.00;;;0.90;;
57309;SDS011;43153;50.984;18.204;2023-04-03T10:06:49;6.30;;;1.20;;
57309;SDS011;43153;50.984;18.204;2023-04-03T10:09:25;4.40;;;1.00;;
57309;SDS011;43153;50.984;18.204;2023-04-03T10:12:06;4.90;;;1.00;;
57309;SDS011;43153;50.984;18.204;2023-04-03T10:14:40;5.00;;;0.80;;
57309;SDS011;43153;50.984;18.204;2023-04-03T10:19:57;5.10;;;0.90;;
57309;SDS011;43153;50.984;18.204;2023-04-03T10:25:40;5.40;;;1.10;;
57309;SDS011;43153;50.984;18.204;2023-04-03T10:41:16;5.60;;;1.20;;
57309;SDS011;43153;50.984;18.204;2023-04-03T10:44:13;5.90;;;1.40;;
57309;SDS011;43153;50.984;18.204;2023-04-03T10:46:56;7.90;;;1.50;;
57309;SDS011;43153;50.984;18.204;2023-04-03T10:49:39;3.80;;;1.00;;
57309;SDS011;43153;50.984;18.204;2023-04-03T10:57:55;5.00;;;1.00;;
57309;SDS011;43153;50.984;18.204;2023-04-03T11:00:45;7.00;;;1.10;;
57309;SDS011;43153;50.984;18.204;2023-04-03T11:03:27;9.20;;;2.10;;
57309;SDS011;43153;50.984;18.204;2023-04-03T11:05:59;7.90;;;1.60;;
57309;SDS011;43153;50.984;18.204;2023-04-03T11:11:22;6.00;;;1.40;;
57309;SDS011;43153;50.984;18.204;2023-04-03T11:14:03;8.20;;;1.70;;
57309;SDS011;43153;50.984;18.204;2023-04-03T11:16:40;6.60;;;1.60;;
57309;SDS011;43153;50.984;18.204;2023-04-03T11:19:18;6.30;;;2.00;;
57309;SDS011;43153;50.984;18.204;2023-04-03T11:25:03;9.00;;;1.50;;
57309;SDS011;43153;50.984;18.204;2023-04-03T11:30:26;4.60;;;1.00;;
57309;SDS011;43153;50.984;18.204;2023-04-03T11:35:26;13.20;;;1.50;;
57309;SDS011;43153;50.984;18.204;2023-04-03T11:37:57;7.80;;;1.30;;
57309;SDS011;43153;50.984;18.204;2023-04-03T11:40:25;8.30;;;1.80;;
57309;SDS011;43153;50.984;18.204;2023-04-03T11:45:40;3.90;;;1.40;;
57309;SDS011;43153;50.984;18.204;2023-04-03T11:53:43;10.30;;;1.80;;
57309;SDS011;43153;50.984;18.204;2023-04-03T11:56:27;6.90;;;1.50;;
57309;SDS011;43153;50.984;18.204;2023-04-03T12:04:17;6.20;;;1.70;;
57309;SDS011;43153;50.984;18.204;2023-04-03T12:06:50;5.30;;;1.40;;
57309;SDS011;43153;50.984;18.204;2023-04-03T12:12:47;3.60;;;0.90;;
57309;SDS011;43153;50.984;18.204;2023-04-03T12:21:11;5.40;;;1.40;;
57309;SDS011;43153;50.984;18.204;2023-04-03T12:37:43;8.50;;;1.40;;
57309;SDS011;43153;50.984;18.204;2023-04-03T12:49:37;7.20;;;1.30;;
57309;SDS011;43153;50.984;18.204;2023-04-03T12:55:17;8.90;;;1.00;;
57309;SDS011;43153;50.984;18.204;2023-04-03T12:57:48;5.00;;;1.30;;
57309;SDS011;43153;50.984;18.204;2023-04-03T13:00:34;9.00;;;1.90;;
57309;SDS011;43153;50.984;18.204;2023-04-03T13:03:01;4.20;;;1.10;;
57309;SDS011;43153;50.984;18.204;2023-04-03T13:05:28;6.80;;;1.30;;
57309;SDS011;43153;50.984;18.204;2023-04-03T13:08:00;5.20;;;1.90;;
57309;SDS011;43153;50.984;18.204;2023-04-03T13:10:30;5.40;;;1.60;;
57309;SDS011;43153;50.984;18.204;2023-04-03T13:13:06;5.00;;;1.40;;
57309;SDS011;43153;50.984;18.204;2023-04-03T13:15:42;7.20;;;1.50;;
57309;SDS011;43153;50.984;18.204;2023-04-03T13:18:24;9.10;;;1.70;;
57309;SDS011;43153;50.984;18.204;2023-04-03T13:20:51;6.00;;;1.30;;
57309;SDS011;43153;50.984;18.204;2023-04-03T13:23:21;5.20;;;1.40;;
57309;SDS011;43153;50.984;18.204;2023-04-03T13:25:48;6.00;;;1.60;;
57309;SDS011;43153;50.984;18.204;2023-04-03T13:28:19;5.40;;;1.20;;
57309;SDS011;43153;50.984;18.204;2023-04-03T13:30:57;4.00;;;1.00;;
57309;SDS011;43153;50.984;18.204;2023-04-03T13:33:26;5.50;;;1.70;;
57309;SDS011;43153;50.984;18.204;2023-04-03T13:38:46;7.40;;;1.80;;
57309;SDS011;43153;50.984;18.204;2023-04-03T13:41:38;7.50;;;1.00;;
57309;SDS011;43153;50.984;18.204;2023-04-03T13:44:40;5.20;;;1.30;;
57309;SDS011;43153;50.984;18.204;2023-04-03T13:52:28;5.80;;;1.20;;
57309;SDS011;43153;50.984;18.204;2023-04-03T13:55:00;5.70;;;1.40;;
57309;SDS011;43153;50.984;18.204;2023-04-03T13:57:33;3.60;;;1.20;;
57309;SDS011;43153;50.984;18.204;2023-04-03T13:59:59;4.60;;;1.40;;
57309;SDS011;43153;50.984;18.204;2023-04-03T14:02:32;5.40;;;1.10;;
57309;SDS011;43153;50.984;18.204;2023-04-03T14:05:01;5.70;;;1.30;;
57309;SDS011;43153;50.984;18.204;2023-04-03T14:07:34;7.20;;;1.30;;
57309;SDS011;43153;50.984;18.204;2023-04-03T14:10:02;9.30;;;1.30;;
57309;SDS011;43153;50.984;18.204;2023-04-03T14:12:31;4.50;;;0.90;;
57309;SDS011;43153;50.984;18.204;2023-04-03T14:15:00;9.30;;;1.20;;
57309;SDS011;43153;50.984;18.204;2023-04-03T14:17:28;7.00;;;1.60;;
57309;SDS011;43153;50.984;18.204;2023-04-03T14:20:00;8.10;;;1.30;;
57309;SDS011;43153;50.984;18.204;2023-04-03T14:22:31;7.70;;;1.00;;
57309;SDS011;43153;50.984;18.204;2023-04-03T14:25:32;5.20;;;1.20;;
57309;SDS011;43153;50.984;18.204;2023-04-03T14:28:06;4.60;;;0.80;;
57309;SDS011;43153;50.984;18.204;2023-04-03T14:30:50;5.80;;;0.90;;
57309;SDS011;43153;50.984;18.204;2023-04-03T14:33:20;3.40;;;1.20;;
57309;SDS011;43153;50.984;18.204;2023-04-03T14:35:47;6.30;;;1.00;;
57309;SDS011;43153;50.984;18.204;2023-04-03T14:38:38;4.90;;;1.00;;
57309;SDS011;43153;50.984;18.204;2023-04-03T14:41:06;5.20;;;1.20;;
57309;SDS011;43153;50.984;18.204;2023-04-03T14:43:33;14.20;;;1.70;;
57309;SDS011;43153;50.984;18.204;2023-04-03T14:45:59;6.50;;;1.50;;
57309;SDS011;43153;50.984;18.204;2023-04-03T14:48:26;5.90;;;1.40;;
57309;SDS011;43153;50.984;18.204;2023-04-03T14:50:55;4.90;;;1.00;;
57309;SDS011;43153;50.984;18.204;2023-04-03T14:53:21;3.10;;;1.00;;
57309;SDS011;43153;50.984;18.204;2023-04-03T14:55:51;3.50;;;1.10;;
57309;SDS011;43153;50.984;18.204;2023-04-03T14:58:18;5.00;;;1.20;;
57309;SDS011;43153;50.984;18.204;2023-04-03T15:00:46;4.80;;;0.90;;
57309;SDS011;43153;50.984;18.204;2023-04-03T15:03:15;3.30;;;0.80;;
57309;SDS011;43153;50.984;18.204;2023-04-03T15:05:49;5.00;;;1.30;;
57309;SDS011;43153;50.984;18.204;2023-04-03T15:08:25;4.70;;;1.20;;
57309;SDS011;43153;50.984;18.204;2023-04-03T15:10:55;5.50;;;1.40;;
57309;SDS011;43153;50.984;18.204;2023-04-03T15:13:23;3.40;;;0.80;;
57309;SDS011;43153;50.984;18.204;2023-04-03T15:15:51;3.40;;;0.90;;
57309;SDS011;43153;50.984;18.204;2023-04-03T15:18:22;3.00;;;0.80;;
57309;SDS011;43153;50.984;18.204;2023-04-03T15:20:51;4.50;;;1.10;;
57309;SDS011;43153;50.984;18.204;2023-04-03T16:02:53;4.10;;;0.90;;
57309;SDS011;43153;50.984;18.204;2023-04-03T16:05:32;3.10;;;0.80;;
57309;SDS011;43153;50.984;18.204;2023-04-03T16:08:02;6.20;;;1.50;;
57309;SDS011;43153;50.984;18.204;2023-04-03T16:10:35;4.90;;;1.20;;
57309;SDS011;43153;50.984;18.204;2023-04-03T16:13:03;6.80;;;1.00;;
57309;SDS011;43153;50.984;18.204;2023-04-03T16:15:32;8.00;;;1.60;;
57309;SDS011;43153;50.984;18.204;2023-04-03T16:18:00;10.10;;;2.00;;
57309;SDS011;43153;50.984;18.204;2023-04-03T16:20:29;9.60;;;1.90;;
57309;SDS011;43153;50.984;18.204;2023-04-03T16:22:56;6.10;;;1.90;;
57309;SDS011;43153;50.984;18.204;2023-04-03T16:25:25;8.30;;;2.50;;
57309;SDS011;43153;50.984;18.204;2023-04-03T16:27:53;8.30;;;2.40;;
57309;SDS011;43153;50.984;18.204;2023-04-03T16:30:20;6.30;;;1.60;;
57309;SDS011;43153;50.984;18.204;2023-04-03T16:32:46;6.90;;;1.40;;
57309;SDS011;43153;50.984;18.204;2023-04-03T16:35:21;7.70;;;2.30;;
57309;SDS011;43153;50.984;18.204;2023-04-03T16:37:53;7.00;;;1.40;;
57309;SDS011;43153;50.984;18.204;2023-04-03T16:40:19;6.10;;;1.80;;
57309;SDS011;43153;50.984;18.204;2023-04-03T16:42:46;7.20;;;1.50;;
57309;SDS011;43153;50.984;18.204;2023-04-03T16:45:16;7.40;;;1.80;;
57309;SDS011;43153;50.984;18.204;2023-04-03T16:47:47;8.50;;;1.80;;
57309;SDS011;43153;50.984;18.204;2023-04-03T16:50:13;5.30;;;1.30;;
57309;SDS011;43153;50.984;18.204;2023-04-03T16:52:41;8.20;;;2.40;;
57309;SDS011;43153;50.984;18.204;2023-04-03T16:55:08;7.10;;;2.30;;
57309;SDS011;43153;50.984;18.204;2023-04-03T16:57:34;8.40;;;1.90;;
57309;SDS011;43153;50.984;18.204;2023-04-03T17:00:01;8.40;;;1.90;;
57309;SDS011;43153;50.984;18.204;2023-04-03T17:02:28;9.10;;;2.80;;
57309;SDS011;43153;50.984;18.204;2023-04-03T17:04:55;11.50;;;3.30;;
57309;SDS011;43153;50.984;18.204;2023-04-03T17:07:21;11.50;;;2.90;;
57309;SDS011;43153;50.984;18.204;2023-04-03T17:09:48;9.50;;;2.50;;
57309;SDS011;43153;50.984;18.204;2023-04-03T17:12:17;8.80;;;2.70;;
57309;SDS011;43153;50.984;18.204;2023-04-03T17:14:43;12.40;;;2.60;;
57309;SDS011;43153;50.984;18.204;2023-04-03T17:17:10;6.70;;;1.90;;
57309;SDS011;43153;50.984;18.204;2023-04-03T17:19:38;11.00;;;3.40;;
57309;SDS011;43153;50.984;18.204;2023-04-03T17:22:08;11.30;;;2.70;;
57309;SDS011;43153;50.984;18.204;2023-04-03T17:24:35;13.10;;;2.90;;
57309;SDS011;43153;50.984;18.204;2023-04-03T17:27:02;7.30;;;2.00;;
57309;SDS011;43153;50.984;18.204;2023-04-03T17:29:28;7.80;;;2.40;;
57309;SDS011;43153;50.984;18.204;2023-04-03T17:31:56;12.10;;;3.50;;
57309;SDS011;43153;50.984;18.204;2023-04-03T17:34:22;10.30;;;2.50;;
57309;SDS011;43153;50.984;18.204;2023-04-03T17:36:51;9.30;;;2.70;;
57309;SDS011;43153;50.984;18.204;2023-04-03T17:39:18;8.30;;;2.20;;
57309;SDS011;43153;50.984;18.204;2023-04-03T17:41:45;12.70;;;3.20;;
57309;SDS011;43153;50.984;18.204;2023-04-03T17:44:13;9.50;;;2.80;;
57309;SDS011;43153;50.984;18.204;2023-04-03T17:46:40;11.90;;;3.50;;
57309;SDS011;43153;50.984;18.204;2023-04-03T17:49:07;13.70;;;4.00;;
57309;SDS011;43153;50.984;18.204;2023-04-03T17:51:39;14.80;;;4.40;;
57309;SDS011;43153;50.984;18.204;2023-04-03T17:54:06;14.80;;;4.20;;
57309;SDS011;43153;50.984;18.204;2023-04-03T17:56:35;11.30;;;3.60;;
57309;SDS011;43153;50.984;18.204;2023-04-03T17:59:02;14.50;;;3.30;;
57309;SDS011;43153;50.984;18.204;2023-04-03T18:01:33;9.60;;;3.30;;
57309;SDS011;43153;50.984;18.204;2023-04-03T18:04:03;7.70;;;2.80;;
57309;SDS011;43153;50.984;18.204;2023-04-03T18:06:39;12.70;;;4.20;;
57309;SDS011;43153;50.984;18.204;2023-04-03T18:09:18;15.80;;;4.50;;
57309;SDS011;43153;50.984;18.204;2023-04-03T18:11:54;15.00;;;4.30;;
57309;SDS011;43153;50.984;18.204;2023-04-03T18:14:21;13.50;;;4.20;;
57309;SDS011;43153;50.984;18.204;2023-04-03T18:16:50;15.10;;;4.10;;
57309;SDS011;43153;50.984;18.204;2023-04-03T18:19:18;19.30;;;5.80;;
57309;SDS011;43153;50.984;18.204;2023-04-03T18:21:55;22.90;;;6.20;;
57309;SDS011;43153;50.984;18.204;2023-04-03T18:24:29;26.30;;;7.20;;
57309;SDS011;43153;50.984;18.204;2023-04-03T18:27:04;21.50;;;6.70;;
57309;SDS011;43153;50.984;18.204;2023-04-03T18:29:37;21.40;;;6.70;;
57309;SDS011;43153;50.984;18.204;2023-04-03T18:32:05;16.20;;;5.70;;
57309;SDS011;43153;50.984;18.204;2023-04-03T18:34:33;19.00;;;6.70;;
57309;SDS011;43153;50.984;18.204;2023-04-03T18:37:03;14.50;;;4.90;;
57309;SDS011;43153;50.984;18.204;2023-04-03T18:39:33;14.30;;;4.80;;
57309;SDS011;43153;50.984;18.204;2023-04-03T18:42:11;13.20;;;4.90;;
57309;SDS011;43153;50.984;18.204;2023-04-03T18:44:41;15.50;;;5.60;;
57309;SDS011;43153;50.984;18.204;2023-04-03T18:47:09;21.00;;;6.00;;
57309;SDS011;43153;50.984;18.204;2023-04-03T18:49:40;16.20;;;5.40;;
57309;SDS011;43153;50.984;18.204;2023-04-03T18:52:14;14.40;;;5.00;;
57309;SDS011;43153;50.984;18.204;2023-04-03T18:54:41;19.70;;;6.40;;
57309;SDS011;43153;50.984;18.204;2023-04-03T18:57:08;29.10;;;8.50;;